sensor_id;sensor_type;location;lat;lon;timestamp;P1;durP1;ratioP1;P2;durP2;ratioP2
78799;SDS011;68148;55.328;86.106;2024-01-25T00:01:27;15.02;;;8.10;;
78799;SDS011;68148;55.328;86.106;2024-01-25T00:03:59;11.57;;;5.55;;
78799;SDS011;68148;55.328;86.106;2024-01-25T00:06:25;9.88;;;5.65;;
78799;SDS011;68148;55.328;86.106;2024-01-25T00:08:56;19.00;;;5.03;;
78799;SDS011;68148;55.328;86.106;2024-01-25T00:11:21;9.35;;;5.10;;
78799;SDS011;68148;55.328;86.106;2024-01-25T00:13:47;19.92;;;6.75;;
78799;SDS011;68148;55.328;86.106;2024-01-25T00:16:13;12.52;;;6.78;;
78799;SDS011;68148;55.328;86.106;2024-01-25T00:18:39;10.10;;;6.93;;
78799;SDS011;68148;55.328;86.106;2024-01-25T00:21:04;11.57;;;7.30;;
78799;SDS011;68148;55.328;86.106;2024-01-25T00:23:30;8.52;;;7.07;;
78799;SDS011;68148;55.328;86.106;2024-01-25T00:25:56;4.35;;;3.58;;
78799;SDS011;68148;55.328;86.106;2024-01-25T00:28:22;12.35;;;3.00;;
78799;SDS011;68148;55.328;86.106;2024-01-25T00:30:47;10.98;;;8.15;;
78799;SDS011;68148;55.328;86.106;2024-01-25T00:33:13;16.45;;;6.40;;
78799;SDS011;68148;55.328;86.106;2024-01-25T00:35:39;13.20;;;8.65;;
78799;SDS011;68148;55.328;86.106;2024-01-25T00:38:06;32.10;;;13.18;;
78799;SDS011;68148;55.328;86.106;2024-01-25T00:40:33;12.60;;;10.38;;
78799;SDS011;68148;55.328;86.106;2024-01-25T00:43:00;12.68;;;7.15;;
78799;SDS011;68148;55.328;86.106;2024-01-25T00:45:27;19.63;;;15.07;;
78799;SDS011;68148;55.328;86.106;2024-01-25T00:48:00;34.83;;;14.15;;
78799;SDS011;68148;55.328;86.106;2024-01-25T00:50:26;18.17;;;13.27;;
78799;SDS011;68148;55.328;86.106;2024-01-25T00:52:52;20.15;;;11.20;;
78799;SDS011;68148;55.328;86.106;2024-01-25T00:55:19;11.40;;;10.15;;
78799;SDS011;68148;55.328;86.106;2024-01-25T00:57:46;28.60;;;11.95;;
78799;SDS011;68148;55.328;86.106;2024-01-25T01:00:12;34.42;;;17.20;;
78799;SDS011;68148;55.328;86.106;2024-01-25T01:02:39;33.08;;;17.65;;
78799;SDS011;68148;55.328;86.106;2024-01-25T01:05:08;27.80;;;13.88;;
78799;SDS011;68148;55.328;86.106;2024-01-25T01:07:35;25.75;;;13.55;;
78799;SDS011;68148;55.328;86.106;2024-01-25T01:10:01;31.08;;;18.10;;
78799;SDS011;68148;55.328;86.106;2024-01-25T01:12:27;5.72;;;5.18;;
78799;SDS011;68148;55.328;86.106;2024-01-25T01:14:54;5.57;;;5.07;;
78799;SDS011;68148;55.328;86.106;2024-01-25T01:17:20;34.05;;;13.30;;
78799;SDS011;68148;55.328;86.106;2024-01-25T01:19:45;47.53;;;16.65;;
78799;SDS011;68148;55.328;86.106;2024-01-25T01:22:11;8.60;;;7.70;;
78799;SDS011;68148;55.328;86.106;2024-01-25T01:24:37;10.27;;;8.00;;
78799;SDS011;68148;55.328;86.106;2024-01-25T01:27:03;30.30;;;22.13;;
78799;SDS011;68148;55.328;86.106;2024-01-25T01:29:30;61.25;;;23.33;;
78799;SDS011;68148;55.328;86.106;2024-01-25T01:31:56;28.35;;;20.25;;
78799;SDS011;68148;55.328;86.106;2024-01-25T01:34:22;22.27;;;14.15;;
78799;SDS011;68148;55.328;86.106;2024-01-25T01:36:54;26.73;;;14.05;;
78799;SDS011;68148;55.328;86.106;2024-01-25T01:39:20;17.70;;;9.65;;
78799;SDS011;68148;55.328;86.106;2024-01-25T01:41:47;27.13;;;13.35;;
78799;SDS011;68148;55.328;86.106;2024-01-25T01:44:14;10.75;;;9.82;;
78799;SDS011;68148;55.328;86.106;2024-01-25T01:46:42;17.42;;;11.25;;
78799;SDS011;68148;55.328;86.106;2024-01-25T01:49:08;18.30;;;9.88;;
78799;SDS011;68148;55.328;86.106;2024-01-25T01:51:38;6.75;;;5.65;;
78799;SDS011;68148;55.328;86.106;2024-01-25T01:54:06;19.38;;;11.90;;
78799;SDS011;68148;55.328;86.106;2024-01-25T01:56:38;29.92;;;16.58;;
78799;SDS011;68148;55.328;86.106;2024-01-25T01:59:05;15.40;;;12.02;;
78799;SDS011;68148;55.328;86.106;2024-01-25T02:01:36;13.52;;;8.65;;
78799;SDS011;68148;55.328;86.106;2024-01-25T02:04:02;30.20;;;12.95;;
78799;SDS011;68148;55.328;86.106;2024-01-25T02:06:28;24.85;;;12.52;;
78799;SDS011;68148;55.328;86.106;2024-01-25T02:08:53;24.90;;;17.98;;
78799;SDS011;68148;55.328;86.106;2024-01-25T02:11:19;29.80;;;12.82;;
78799;SDS011;68148;55.328;86.106;2024-01-25T02:13:45;23.42;;;8.88;;
78799;SDS011;68148;55.328;86.106;2024-01-25T02:16:11;26.73;;;10.55;;
78799;SDS011;68148;55.328;86.106;2024-01-25T02:18:37;17.08;;;11.70;;
78799;SDS011;68148;55.328;86.106;2024-01-25T02:21:03;18.13;;;10.43;;
78799;SDS011;68148;55.328;86.106;2024-01-25T02:23:30;14.70;;;8.57;;
78799;SDS011;68148;55.328;86.106;2024-01-25T02:25:57;11.70;;;10.40;;
78799;SDS011;68148;55.328;86.106;2024-01-25T02:28:23;14.00;;;10.00;;
78799;SDS011;68148;55.328;86.106;2024-01-25T02:30:49;13.52;;;9.32;;
78799;SDS011;68148;55.328;86.106;2024-01-25T02:33:15;12.13;;;6.28;;
78799;SDS011;68148;55.328;86.106;2024-01-25T02:35:42;22.10;;;10.90;;
78799;SDS011;68148;55.328;86.106;2024-01-25T02:38:08;13.40;;;8.93;;
78799;SDS011;68148;55.328;86.106;2024-01-25T02:40:34;21.00;;;9.50;;
78799;SDS011;68148;55.328;86.106;2024-01-25T02:43:01;12.23;;;8.50;;
78799;SDS011;68148;55.328;86.106;2024-01-25T02:45:27;37.88;;;15.38;;
78799;SDS011;68148;55.328;86.106;2024-01-25T02:47:53;8.25;;;5.13;;
78799;SDS011;68148;55.328;86.106;2024-01-25T02:50:19;10.82;;;7.95;;
78799;SDS011;68148;55.328;86.106;2024-01-25T02:52:45;6.95;;;5.05;;
78799;SDS011;68148;55.328;86.106;2024-01-25T02:55:10;11.57;;;6.40;;
78799;SDS011;68148;55.328;86.106;2024-01-25T02:57:36;2.38;;;2.05;;
78799;SDS011;68148;55.328;86.106;2024-01-25T03:00:02;5.95;;;4.50;;
78799;SDS011;68148;55.328;86.106;2024-01-25T03:02:28;15.43;;;8.15;;
78799;SDS011;68148;55.328;86.106;2024-01-25T03:04:54;23.42;;;14.13;;
78799;SDS011;68148;55.328;86.106;2024-01-25T03:07:20;10.13;;;5.78;;
78799;SDS011;68148;55.328;86.106;2024-01-25T03:09:46;17.40;;;5.70;;
78799;SDS011;68148;55.328;86.106;2024-01-25T03:12:12;11.70;;;8.88;;
78799;SDS011;68148;55.328;86.106;2024-01-25T03:14:41;20.80;;;18.63;;
78799;SDS011;68148;55.328;86.106;2024-01-25T03:17:07;24.30;;;22.02;;
78799;SDS011;68148;55.328;86.106;2024-01-25T03:19:34;9.93;;;7.80;;
78799;SDS011;68148;55.328;86.106;2024-01-25T03:22:00;27.02;;;8.50;;
78799;SDS011;68148;55.328;86.106;2024-01-25T03:24:38;10.70;;;6.10;;
78799;SDS011;68148;55.328;86.106;2024-01-25T03:27:04;8.98;;;6.40;;
78799;SDS011;68148;55.328;86.106;2024-01-25T03:29:30;14.02;;;9.27;;
78799;SDS011;68148;55.328;86.106;2024-01-25T03:31:57;9.05;;;3.80;;
78799;SDS011;68148;55.328;86.106;2024-01-25T03:34:23;8.45;;;4.90;;
78799;SDS011;68148;55.328;86.106;2024-01-25T03:36:48;15.15;;;7.15;;
78799;SDS011;68148;55.328;86.106;2024-01-25T03:39:16;7.38;;;6.60;;
78799;SDS011;68148;55.328;86.106;2024-01-25T03:41:42;9.50;;;4.78;;
78799;SDS011;68148;55.328;86.106;2024-01-25T03:44:08;18.13;;;8.85;;
78799;SDS011;68148;55.328;86.106;2024-01-25T03:46:34;9.15;;;3.28;;
78799;SDS011;68148;55.328;86.106;2024-01-25T03:49:00;31.70;;;5.90;;
78799;SDS011;68148;55.328;86.106;2024-01-25T03:51:25;8.40;;;6.03;;
78799;SDS011;68148;55.328;86.106;2024-01-25T03:53:51;7.35;;;4.50;;
78799;SDS011;68148;55.328;86.106;2024-01-25T03:56:17;7.38;;;4.75;;
78799;SDS011;68148;55.328;86.106;2024-01-25T03:58:44;14.85;;;5.82;;
78799;SDS011;68148;55.328;86.106;2024-01-25T04:01:10;6.70;;;4.22;;
78799;SDS011;68148;55.328;86.106;2024-01-25T04:03:35;19.05;;;3.35;;
78799;SDS011;68148;55.328;86.106;2024-01-25T04:06:01;4.60;;;4.10;;
78799;SDS011;68148;55.328;86.106;2024-01-25T04:08:29;18.90;;;7.40;;
78799;SDS011;68148;55.328;86.106;2024-01-25T04:10:59;3.53;;;3.22;;
78799;SDS011;68148;55.328;86.106;2024-01-25T04:13:25;14.43;;;6.68;;
78799;SDS011;68148;55.328;86.106;2024-01-25T04:15:50;4.47;;;2.75;;
78799;SDS011;68148;55.328;86.106;2024-01-25T04:18:18;29.38;;;6.32;;
78799;SDS011;68148;55.328;86.106;2024-01-25T04:20:44;4.88;;;3.17;;
78799;SDS011;68148;55.328;86.106;2024-01-25T04:23:09;9.02;;;4.63;;
78799;SDS011;68148;55.328;86.106;2024-01-25T04:25:48;8.85;;;5.10;;
78799;SDS011;68148;55.328;86.106;2024-01-25T04:28:17;16.30;;;4.18;;
78799;SDS011;68148;55.328;86.106;2024-01-25T04:30:43;9.10;;;4.35;;
78799;SDS011;68148;55.328;86.106;2024-01-25T04:33:09;12.88;;;4.88;;
78799;SDS011;68148;55.328;86.106;2024-01-25T04:35:35;16.92;;;7.10;;
78799;SDS011;68148;55.328;86.106;2024-01-25T04:38:01;21.98;;;8.63;;
78799;SDS011;68148;55.328;86.106;2024-01-25T04:40:30;5.40;;;3.03;;
78799;SDS011;68148;55.328;86.106;2024-01-25T04:42:56;10.38;;;7.07;;
78799;SDS011;68148;55.328;86.106;2024-01-25T04:45:21;31.90;;;10.77;;
78799;SDS011;68148;55.328;86.106;2024-01-25T04:47:47;10.65;;;5.53;;
78799;SDS011;68148;55.328;86.106;2024-01-25T04:50:13;25.15;;;7.95;;
78799;SDS011;68148;55.328;86.106;2024-01-25T04:52:39;6.63;;;4.65;;
78799;SDS011;68148;55.328;86.106;2024-01-25T04:55:05;8.27;;;3.90;;
78799;SDS011;68148;55.328;86.106;2024-01-25T04:57:31;7.90;;;4.40;;
78799;SDS011;68148;55.328;86.106;2024-01-25T04:59:56;5.30;;;2.92;;
78799;SDS011;68148;55.328;86.106;2024-01-25T05:02:22;5.93;;;3.25;;
78799;SDS011;68148;55.328;86.106;2024-01-25T05:04:48;8.95;;;3.88;;
78799;SDS011;68148;55.328;86.106;2024-01-25T05:07:15;2.22;;;1.40;;
78799;SDS011;68148;55.328;86.106;2024-01-25T05:09:40;14.05;;;6.32;;
78799;SDS011;68148;55.328;86.106;2024-01-25T05:12:06;12.68;;;4.18;;
78799;SDS011;68148;55.328;86.106;2024-01-25T05:14:33;17.70;;;3.20;;
78799;SDS011;68148;55.328;86.106;2024-01-25T05:16:59;4.38;;;2.92;;
78799;SDS011;68148;55.328;86.106;2024-01-25T05:19:24;9.15;;;2.83;;
78799;SDS011;68148;55.328;86.106;2024-01-25T05:21:50;23.23;;;4.85;;
78799;SDS011;68148;55.328;86.106;2024-01-25T05:24:16;15.02;;;6.63;;
78799;SDS011;68148;55.328;86.106;2024-01-25T05:26:42;3.88;;;2.67;;
78799;SDS011;68148;55.328;86.106;2024-01-25T05:29:07;4.93;;;3.42;;
78799;SDS011;68148;55.328;86.106;2024-01-25T05:31:33;12.35;;;4.60;;
78799;SDS011;68148;55.328;86.106;2024-01-25T05:34:00;8.02;;;5.35;;
78799;SDS011;68148;55.328;86.106;2024-01-25T05:36:26;11.27;;;9.85;;
78799;SDS011;68148;55.328;86.106;2024-01-25T05:38:52;8.38;;;3.05;;
78799;SDS011;68148;55.328;86.106;2024-01-25T05:41:18;13.82;;;6.32;;
78799;SDS011;68148;55.328;86.106;2024-01-25T05:43:44;11.38;;;3.45;;
78799;SDS011;68148;55.328;86.106;2024-01-25T05:46:09;7.43;;;3.25;;
78799;SDS011;68148;55.328;86.106;2024-01-25T05:48:35;20.63;;;5.38;;
78799;SDS011;68148;55.328;86.106;2024-01-25T05:51:02;9.77;;;4.85;;
78799;SDS011;68148;55.328;86.106;2024-01-25T05:53:28;8.80;;;2.97;;
78799;SDS011;68148;55.328;86.106;2024-01-25T05:55:54;10.70;;;3.10;;
78799;SDS011;68148;55.328;86.106;2024-01-25T05:58:20;4.35;;;2.17;;
78799;SDS011;68148;55.328;86.106;2024-01-25T06:00:45;12.05;;;4.75;;
78799;SDS011;68148;55.328;86.106;2024-01-25T06:03:11;23.00;;;7.10;;
78799;SDS011;68148;55.328;86.106;2024-01-25T06:05:37;16.52;;;4.80;;
78799;SDS011;68148;55.328;86.106;2024-01-25T06:08:03;9.40;;;5.47;;
78799;SDS011;68148;55.328;86.106;2024-01-25T06:10:29;8.32;;;4.63;;
78799;SDS011;68148;55.328;86.106;2024-01-25T06:12:55;6.15;;;4.07;;
78799;SDS011;68148;55.328;86.106;2024-01-25T06:15:22;9.02;;;4.03;;
78799;SDS011;68148;55.328;86.106;2024-01-25T06:17:48;8.00;;;3.17;;
78799;SDS011;68148;55.328;86.106;2024-01-25T06:20:14;11.23;;;5.88;;
78799;SDS011;68148;55.328;86.106;2024-01-25T06:22:40;11.75;;;4.93;;
78799;SDS011;68148;55.328;86.106;2024-01-25T06:25:13;15.75;;;5.22;;
78799;SDS011;68148;55.328;86.106;2024-01-25T06:27:39;9.73;;;5.88;;
78799;SDS011;68148;55.328;86.106;2024-01-25T06:30:05;14.65;;;5.35;;
78799;SDS011;68148;55.328;86.106;2024-01-25T06:32:33;21.63;;;5.15;;
78799;SDS011;68148;55.328;86.106;2024-01-25T06:34:58;14.38;;;4.88;;
78799;SDS011;68148;55.328;86.106;2024-01-25T06:37:24;12.57;;;5.80;;
78799;SDS011;68148;55.328;86.106;2024-01-25T06:39:51;2.38;;;1.88;;
78799;SDS011;68148;55.328;86.106;2024-01-25T06:42:16;6.93;;;4.60;;
78799;SDS011;68148;55.328;86.106;2024-01-25T06:44:45;33.00;;;6.13;;
78799;SDS011;68148;55.328;86.106;2024-01-25T06:47:10;11.05;;;4.75;;
78799;SDS011;68148;55.328;86.106;2024-01-25T06:49:40;11.70;;;6.35;;
78799;SDS011;68148;55.328;86.106;2024-01-25T06:52:06;16.00;;;6.35;;
78799;SDS011;68148;55.328;86.106;2024-01-25T06:54:34;6.85;;;3.30;;
78799;SDS011;68148;55.328;86.106;2024-01-25T06:56:59;14.25;;;5.60;;
78799;SDS011;68148;55.328;86.106;2024-01-25T06:59:25;18.25;;;6.03;;
78799;SDS011;68148;55.328;86.106;2024-01-25T07:01:51;15.90;;;5.82;;
78799;SDS011;68148;55.328;86.106;2024-01-25T07:04:17;12.13;;;4.82;;
78799;SDS011;68148;55.328;86.106;2024-01-25T07:06:49;6.20;;;3.88;;
78799;SDS011;68148;55.328;86.106;2024-01-25T07:09:15;5.25;;;3.00;;
78799;SDS011;68148;55.328;86.106;2024-01-25T07:11:41;19.95;;;5.35;;
78799;SDS011;68148;55.328;86.106;2024-01-25T07:14:06;17.75;;;5.95;;
78799;SDS011;68148;55.328;86.106;2024-01-25T07:16:34;10.45;;;4.95;;
78799;SDS011;68148;55.328;86.106;2024-01-25T07:18:59;10.05;;;4.32;;
78799;SDS011;68148;55.328;86.106;2024-01-25T07:21:25;17.65;;;5.80;;
78799;SDS011;68148;55.328;86.106;2024-01-25T07:23:51;11.43;;;5.28;;
78799;SDS011;68148;55.328;86.106;2024-01-25T07:26:17;11.73;;;4.22;;
78799;SDS011;68148;55.328;86.106;2024-01-25T07:28:48;12.38;;;5.05;;
78799;SDS011;68148;55.328;86.106;2024-01-25T07:31:14;14.27;;;6.25;;
78799;SDS011;68148;55.328;86.106;2024-01-25T07:33:40;39.42;;;5.57;;
78799;SDS011;68148;55.328;86.106;2024-01-25T07:36:06;9.05;;;4.97;;
78799;SDS011;68148;55.328;86.106;2024-01-25T07:38:35;8.48;;;4.13;;
78799;SDS011;68148;55.328;86.106;2024-01-25T07:41:04;14.77;;;4.75;;
78799;SDS011;68148;55.328;86.106;2024-01-25T07:43:30;18.48;;;5.53;;
78799;SDS011;68148;55.328;86.106;2024-01-25T07:45:56;11.90;;;3.95;;
78799;SDS011;68148;55.328;86.106;2024-01-25T07:48:21;11.68;;;3.97;;
78799;SDS011;68148;55.328;86.106;2024-01-25T07:50:47;8.07;;;3.40;;
78799;SDS011;68148;55.328;86.106;2024-01-25T07:53:13;5.88;;;4.43;;
78799;SDS011;68148;55.328;86.106;2024-01-25T07:55:39;4.97;;;3.53;;
78799;SDS011;68148;55.328;86.106;2024-01-25T07:58:06;14.85;;;4.65;;
78799;SDS011;68148;55.328;86.106;2024-01-25T08:00:32;19.88;;;4.47;;
78799;SDS011;68148;55.328;86.106;2024-01-25T08:02:58;15.90;;;4.32;;
78799;SDS011;68148;55.328;86.106;2024-01-25T08:05:24;14.43;;;3.88;;
78799;SDS011;68148;55.328;86.106;2024-01-25T08:07:50;23.70;;;4.43;;
78799;SDS011;68148;55.328;86.106;2024-01-25T08:10:16;8.73;;;4.03;;
78799;SDS011;68148;55.328;86.106;2024-01-25T08:12:42;6.47;;;2.97;;
78799;SDS011;68148;55.328;86.106;2024-01-25T08:15:07;12.63;;;3.63;;
78799;SDS011;68148;55.328;86.106;2024-01-25T08:17:34;12.65;;;4.13;;
78799;SDS011;68148;55.328;86.106;2024-01-25T08:19:59;8.07;;;4.10;;
78799;SDS011;68148;55.328;86.106;2024-01-25T08:22:25;15.48;;;4.68;;
78799;SDS011;68148;55.328;86.106;2024-01-25T08:24:53;23.65;;;4.85;;
78799;SDS011;68148;55.328;86.106;2024-01-25T08:27:20;7.50;;;4.85;;
78799;SDS011;68148;55.328;86.106;2024-01-25T08:29:45;8.05;;;3.65;;
78799;SDS011;68148;55.328;86.106;2024-01-25T08:32:11;11.70;;;2.97;;
78799;SDS011;68148;55.328;86.106;2024-01-25T08:34:39;10.52;;;3.63;;
78799;SDS011;68148;55.328;86.106;2024-01-25T08:37:06;13.48;;;3.63;;
78799;SDS011;68148;55.328;86.106;2024-01-25T08:39:32;9.52;;;3.78;;
78799;SDS011;68148;55.328;86.106;2024-01-25T08:41:58;3.83;;;2.80;;
78799;SDS011;68148;55.328;86.106;2024-01-25T08:44:24;5.97;;;2.60;;
78799;SDS011;68148;55.328;86.106;2024-01-25T08:46:50;3.72;;;1.20;;
78799;SDS011;68148;55.328;86.106;2024-01-25T08:49:16;16.65;;;4.05;;
78799;SDS011;68148;55.328;86.106;2024-01-25T08:51:42;8.60;;;2.22;;
78799;SDS011;68148;55.328;86.106;2024-01-25T08:54:08;10.07;;;3.85;;
78799;SDS011;68148;55.328;86.106;2024-01-25T08:56:35;6.75;;;3.65;;
78799;SDS011;68148;55.328;86.106;2024-01-25T08:59:03;10.63;;;4.22;;
78799;SDS011;68148;55.328;86.106;2024-01-25T09:01:29;15.90;;;3.70;;
78799;SDS011;68148;55.328;86.106;2024-01-25T09:04:03;2.10;;;1.08;;
78799;SDS011;68148;55.328;86.106;2024-01-25T09:06:29;8.43;;;3.67;;
78799;SDS011;68148;55.328;86.106;2024-01-25T09:08:57;5.00;;;3.00;;
78799;SDS011;68148;55.328;86.106;2024-01-25T09:11:24;8.95;;;3.97;;
78799;SDS011;68148;55.328;86.106;2024-01-25T09:13:50;6.78;;;3.05;;
78799;SDS011;68148;55.328;86.106;2024-01-25T09:16:16;8.00;;;2.83;;
78799;SDS011;68148;55.328;86.106;2024-01-25T09:18:42;19.23;;;5.30;;
78799;SDS011;68148;55.328;86.106;2024-01-25T09:21:08;11.63;;;4.55;;
78799;SDS011;68148;55.328;86.106;2024-01-25T09:23:34;5.63;;;3.78;;
78799;SDS011;68148;55.328;86.106;2024-01-25T09:26:00;6.30;;;2.63;;
78799;SDS011;68148;55.328;86.106;2024-01-25T09:28:25;11.43;;;4.13;;
78799;SDS011;68148;55.328;86.106;2024-01-25T09:30:51;17.10;;;6.10;;
78799;SDS011;68148;55.328;86.106;2024-01-25T09:33:17;7.68;;;2.30;;
78799;SDS011;68148;55.328;86.106;2024-01-25T09:35:43;8.43;;;2.88;;
78799;SDS011;68148;55.328;86.106;2024-01-25T09:38:09;6.32;;;3.80;;
78799;SDS011;68148;55.328;86.106;2024-01-25T09:40:35;9.95;;;4.53;;
78799;SDS011;68148;55.328;86.106;2024-01-25T09:43:01;7.45;;;1.73;;
78799;SDS011;68148;55.328;86.106;2024-01-25T09:45:27;5.80;;;2.80;;
78799;SDS011;68148;55.328;86.106;2024-01-25T09:47:53;8.73;;;4.50;;
78799;SDS011;68148;55.328;86.106;2024-01-25T09:50:19;11.25;;;3.45;;
78799;SDS011;68148;55.328;86.106;2024-01-25T09:52:45;10.55;;;2.05;;
78799;SDS011;68148;55.328;86.106;2024-01-25T09:55:19;11.65;;;6.22;;
78799;SDS011;68148;55.328;86.106;2024-01-25T09:57:52;10.05;;;4.10;;
78799;SDS011;68148;55.328;86.106;2024-01-25T10:00:19;11.75;;;4.35;;
78799;SDS011;68148;55.328;86.106;2024-01-25T10:02:49;17.00;;;4.30;;
78799;SDS011;68148;55.328;86.106;2024-01-25T10:05:19;6.85;;;2.72;;
78799;SDS011;68148;55.328;86.106;2024-01-25T10:07:46;14.35;;;3.55;;
78799;SDS011;68148;55.328;86.106;2024-01-25T10:10:12;2.38;;;1.27;;
78799;SDS011;68148;55.328;86.106;2024-01-25T10:12:41;3.70;;;2.65;;
78799;SDS011;68148;55.328;86.106;2024-01-25T10:15:20;5.72;;;2.92;;
78799;SDS011;68148;55.328;86.106;2024-01-25T10:17:46;7.63;;;3.95;;
78799;SDS011;68148;55.328;86.106;2024-01-25T10:20:15;9.25;;;5.25;;
78799;SDS011;68148;55.328;86.106;2024-01-25T10:22:51;14.13;;;3.15;;
78799;SDS011;68148;55.328;86.106;2024-01-25T10:25:17;13.18;;;3.55;;
78799;SDS011;68148;55.328;86.106;2024-01-25T10:27:43;14.93;;;3.03;;
78799;SDS011;68148;55.328;86.106;2024-01-25T10:30:10;21.85;;;4.40;;
78799;SDS011;68148;55.328;86.106;2024-01-25T10:32:38;4.18;;;2.67;;
78799;SDS011;68148;55.328;86.106;2024-01-25T10:35:06;8.88;;;4.28;;
78799;SDS011;68148;55.328;86.106;2024-01-25T10:37:34;8.20;;;3.45;;
78799;SDS011;68148;55.328;86.106;2024-01-25T10:39:59;9.73;;;3.67;;
78799;SDS011;68148;55.328;86.106;2024-01-25T10:42:27;10.90;;;3.33;;
78799;SDS011;68148;55.328;86.106;2024-01-25T10:44:52;9.88;;;4.35;;
78799;SDS011;68148;55.328;86.106;2024-01-25T10:47:18;5.60;;;4.00;;
78799;SDS011;68148;55.328;86.106;2024-01-25T10:49:46;10.13;;;4.68;;
78799;SDS011;68148;55.328;86.106;2024-01-25T10:52:13;10.25;;;4.63;;
78799;SDS011;68148;55.328;86.106;2024-01-25T10:54:40;3.55;;;2.35;;
78799;SDS011;68148;55.328;86.106;2024-01-25T10:57:06;5.05;;;2.78;;
78799;SDS011;68148;55.328;86.106;2024-01-25T10:59:32;6.18;;;3.65;;
78799;SDS011;68148;55.328;86.106;2024-01-25T11:01:57;20.73;;;4.30;;
78799;SDS011;68148;55.328;86.106;2024-01-25T11:04:26;12.30;;;5.57;;
78799;SDS011;68148;55.328;86.106;2024-01-25T11:06:52;13.00;;;5.18;;
78799;SDS011;68148;55.328;86.106;2024-01-25T11:09:18;5.80;;;4.50;;
78799;SDS011;68148;55.328;86.106;2024-01-25T11:11:49;12.57;;;4.22;;
78799;SDS011;68148;55.328;86.106;2024-01-25T11:14:15;6.07;;;2.38;;
78799;SDS011;68148;55.328;86.106;2024-01-25T11:16:42;8.93;;;3.05;;
78799;SDS011;68148;55.328;86.106;2024-01-25T11:19:08;17.52;;;3.97;;
78799;SDS011;68148;55.328;86.106;2024-01-25T11:21:46;7.60;;;2.67;;
78799;SDS011;68148;55.328;86.106;2024-01-25T11:24:16;5.32;;;3.08;;
78799;SDS011;68148;55.328;86.106;2024-01-25T11:26:47;12.48;;;4.90;;
78799;SDS011;68148;55.328;86.106;2024-01-25T11:29:22;8.77;;;3.38;;
78799;SDS011;68148;55.328;86.106;2024-01-25T11:31:48;9.80;;;3.17;;
78799;SDS011;68148;55.328;86.106;2024-01-25T11:34:16;4.90;;;3.00;;
78799;SDS011;68148;55.328;86.106;2024-01-25T11:36:43;8.85;;;3.40;;
78799;SDS011;68148;55.328;86.106;2024-01-25T11:39:10;12.43;;;3.80;;
78799;SDS011;68148;55.328;86.106;2024-01-25T11:41:36;13.20;;;3.42;;
78799;SDS011;68148;55.328;86.106;2024-01-25T11:44:03;10.98;;;4.47;;
78799;SDS011;68148;55.328;86.106;2024-01-25T11:46:30;3.78;;;2.58;;
78799;SDS011;68148;55.328;86.106;2024-01-25T11:48:59;1.60;;;1.10;;
78799;SDS011;68148;55.328;86.106;2024-01-25T11:51:26;8.90;;;4.18;;
78799;SDS011;68148;55.328;86.106;2024-01-25T11:53:52;9.10;;;3.33;;
78799;SDS011;68148;55.328;86.106;2024-01-25T11:56:36;7.10;;;3.40;;
78799;SDS011;68148;55.328;86.106;2024-01-25T11:59:04;8.38;;;3.72;;
78799;SDS011;68148;55.328;86.106;2024-01-25T12:01:32;2.15;;;0.85;;
78799;SDS011;68148;55.328;86.106;2024-01-25T12:03:58;5.68;;;3.20;;
78799;SDS011;68148;55.328;86.106;2024-01-25T12:06:24;8.70;;;3.53;;
78799;SDS011;68148;55.328;86.106;2024-01-25T12:08:51;12.50;;;4.55;;
78799;SDS011;68148;55.328;86.106;2024-01-25T12:11:20;16.15;;;3.47;;
78799;SDS011;68148;55.328;86.106;2024-01-25T12:13:47;8.55;;;4.50;;
78799;SDS011;68148;55.328;86.106;2024-01-25T12:16:12;12.13;;;3.58;;
78799;SDS011;68148;55.328;86.106;2024-01-25T12:18:40;5.60;;;2.58;;
78799;SDS011;68148;55.328;86.106;2024-01-25T12:21:08;7.78;;;3.75;;
78799;SDS011;68148;55.328;86.106;2024-01-25T12:23:35;8.50;;;3.47;;
78799;SDS011;68148;55.328;86.106;2024-01-25T12:26:03;4.97;;;2.83;;
78799;SDS011;68148;55.328;86.106;2024-01-25T12:28:31;12.82;;;3.70;;
78799;SDS011;68148;55.328;86.106;2024-01-25T12:30:57;3.60;;;1.58;;
78799;SDS011;68148;55.328;86.106;2024-01-25T12:33:27;9.27;;;3.30;;
78799;SDS011;68148;55.328;86.106;2024-01-25T12:35:56;14.60;;;4.20;;
78799;SDS011;68148;55.328;86.106;2024-01-25T12:38:23;8.60;;;4.22;;
78799;SDS011;68148;55.328;86.106;2024-01-25T12:40:50;9.40;;;4.43;;
78799;SDS011;68148;55.328;86.106;2024-01-25T12:43:16;21.92;;;3.28;;
78799;SDS011;68148;55.328;86.106;2024-01-25T12:45:43;13.55;;;4.47;;
78799;SDS011;68148;55.328;86.106;2024-01-25T12:48:09;11.60;;;4.80;;
78799;SDS011;68148;55.328;86.106;2024-01-25T12:50:36;17.45;;;3.20;;
78799;SDS011;68148;55.328;86.106;2024-01-25T12:53:05;18.52;;;7.10;;
78799;SDS011;68148;55.328;86.106;2024-01-25T12:55:31;10.00;;;3.58;;
78799;SDS011;68148;55.328;86.106;2024-01-25T12:57:57;4.85;;;2.80;;
78799;SDS011;68148;55.328;86.106;2024-01-25T13:00:24;9.82;;;3.38;;
78799;SDS011;68148;55.328;86.106;2024-01-25T13:02:52;9.40;;;4.15;;
78799;SDS011;68148;55.328;86.106;2024-01-25T13:05:18;5.60;;;3.10;;
78799;SDS011;68148;55.328;86.106;2024-01-25T13:07:56;16.05;;;3.10;;
78799;SDS011;68148;55.328;86.106;2024-01-25T13:10:22;10.73;;;3.80;;
78799;SDS011;68148;55.328;86.106;2024-01-25T13:12:48;7.03;;;2.95;;
78799;SDS011;68148;55.328;86.106;2024-01-25T13:15:14;8.80;;;4.35;;
78799;SDS011;68148;55.328;86.106;2024-01-25T13:17:39;6.00;;;3.78;;
78799;SDS011;68148;55.328;86.106;2024-01-25T13:20:06;7.72;;;4.38;;
78799;SDS011;68148;55.328;86.106;2024-01-25T13:22:33;10.18;;;4.15;;
78799;SDS011;68148;55.328;86.106;2024-01-25T13:25:00;6.70;;;3.80;;
78799;SDS011;68148;55.328;86.106;2024-01-25T13:27:27;12.65;;;5.85;;
78799;SDS011;68148;55.328;86.106;2024-01-25T13:29:53;5.15;;;2.20;;
78799;SDS011;68148;55.328;86.106;2024-01-25T13:32:20;18.27;;;4.50;;
78799;SDS011;68148;55.328;86.106;2024-01-25T13:34:48;17.02;;;4.00;;
78799;SDS011;68148;55.328;86.106;2024-01-25T13:37:14;7.72;;;3.63;;
78799;SDS011;68148;55.328;86.106;2024-01-25T13:39:41;13.52;;;5.75;;
78799;SDS011;68148;55.328;86.106;2024-01-25T13:42:09;8.50;;;3.78;;
78799;SDS011;68148;55.328;86.106;2024-01-25T13:44:35;9.25;;;4.05;;
78799;SDS011;68148;55.328;86.106;2024-01-25T13:47:01;6.15;;;2.38;;
78799;SDS011;68148;55.328;86.106;2024-01-25T13:49:27;9.63;;;3.15;;
78799;SDS011;68148;55.328;86.106;2024-01-25T13:51:53;9.93;;;4.55;;
78799;SDS011;68148;55.328;86.106;2024-01-25T13:54:19;8.82;;;2.67;;
78799;SDS011;68148;55.328;86.106;2024-01-25T13:56:49;7.00;;;4.05;;
78799;SDS011;68148;55.328;86.106;2024-01-25T13:59:41;12.23;;;4.65;;
78799;SDS011;68148;55.328;86.106;2024-01-25T14:02:06;6.63;;;2.75;;
78799;SDS011;68148;55.328;86.106;2024-01-25T14:04:32;19.08;;;4.80;;
78799;SDS011;68148;55.328;86.106;2024-01-25T14:06:58;11.50;;;4.25;;
78799;SDS011;68148;55.328;86.106;2024-01-25T14:09:27;13.43;;;5.65;;
78799;SDS011;68148;55.328;86.106;2024-01-25T14:11:54;14.77;;;5.88;;
78799;SDS011;68148;55.328;86.106;2024-01-25T14:14:20;11.77;;;6.28;;
78799;SDS011;68148;55.328;86.106;2024-01-25T14:16:50;14.02;;;5.30;;
78799;SDS011;68148;55.328;86.106;2024-01-25T14:19:19;13.90;;;5.18;;
78799;SDS011;68148;55.328;86.106;2024-01-25T14:21:47;13.57;;;3.95;;
78799;SDS011;68148;55.328;86.106;2024-01-25T14:24:16;7.53;;;3.95;;